sensor_id;sensor_type;location;lat;lon;timestamp;temperature;humidity
16116;DHT22;8162;47.104;15.432;2024-02-14T12:40:30;5.10;67.50
16116;DHT22;8162;47.104;15.432;2024-02-14T12:43:33;11.00;42.40
16116;DHT22;8162;47.104;15.432;2024-02-14T13:22:49;11.10;42.00
16116;DHT22;8162;47.104;15.432;2024-02-14T13:25:50;12.10;38.70
16116;DHT22;8162;47.104;15.432;2024-02-14T13:37:54;12.30;37.90
16116;DHT22;8162;47.104;15.432;2024-02-14T13:40:56;12.90;37.70
16116;DHT22;8162;47.104;15.432;2024-02-14T13:56:02;13.30;36.50
16116;DHT22;8162;47.104;15.432;2024-02-14T13:59:02;15.60;33.30
16116;DHT22;8162;47.104;15.432;2024-02-14T14:02:03;15.70;34.90
16116;DHT22;8162;47.104;15.432;2024-02-14T14:05:04;15.50;33.00
16116;DHT22;8162;47.104;15.432;2024-02-14T14:08:05;15.20;34.50
16116;DHT22;8162;47.104;15.432;2024-02-14T14:11:06;15.40;34.80
16116;DHT22;8162;47.104;15.432;2024-02-14T14:20:17;15.00;35.40
16116;DHT22;8162;47.104;15.432;2024-02-14T14:23:19;13.70;37.20
16116;DHT22;8162;47.104;15.432;2024-02-14T14:26:19;13.90;37.70
16116;DHT22;8162;47.104;15.432;2024-02-14T14:32:21;14.20;35.20
16116;DHT22;8162;47.104;15.432;2024-02-14T14:35:22;14.50;35.70
16116;DHT22;8162;47.104;15.432;2024-02-14T14:38:22;14.60;35.50
16116;DHT22;8162;47.104;15.432;2024-02-14T14:41:24;14.70;35.40
16116;DHT22;8162;47.104;15.432;2024-02-14T14:44:25;14.90;35.10
16116;DHT22;8162;47.104;15.432;2024-02-14T14:47:26;15.00;35.20
16116;DHT22;8162;47.104;15.432;2024-02-14T14:50:27;15.20;34.70
16116;DHT22;8162;47.104;15.432;2024-02-14T14:53:27;15.30;35.20
16116;DHT22;8162;47.104;15.432;2024-02-14T14:56:28;15.20;35.40
16116;DHT22;8162;47.104;15.432;2024-02-14T14:59:29;15.00;34.30
16116;DHT22;8162;47.104;15.432;2024-02-14T15:02:30;14.50;34.40
16116;DHT22;8162;47.104;15.432;2024-02-14T15:05:31;14.00;35.00
16116;DHT22;8162;47.104;15.432;2024-02-14T15:08:32;13.70;36.30
16116;DHT22;8162;47.104;15.432;2024-02-14T15:51:33;13.40;37.50
16116;DHT22;8162;47.104;15.432;2024-02-14T15:54:34;10.70;46.80
16116;DHT22;8162;47.104;15.432;2024-02-14T15:57:35;10.60;46.50
16116;DHT22;8162;47.104;15.432;2024-02-14T18:28:48;10.50;47.20
16116;DHT22;8162;47.104;15.432;2024-02-14T18:31:49;7.40;60.00
16116;DHT22;8162;47.104;15.432;2024-02-14T18:34:49;7.30;59.70
16116;DHT22;8162;47.104;15.432;2024-02-14T18:37:50;7.20;59.90
16116;DHT22;8162;47.104;15.432;2024-02-14T18:40:51;7.20;60.30
16116;DHT22;8162;47.104;15.432;2024-02-14T18:43:51;7.10;60.10
16116;DHT22;8162;47.104;15.432;2024-02-14T18:46:53;7.00;60.20
16116;DHT22;8162;47.104;15.432;2024-02-14T18:49:54;7.00;60.10
16116;DHT22;8162;47.104;15.432;2024-02-14T18:52:54;7.00;60.50
16116;DHT22;8162;47.104;15.432;2024-02-14T18:55:55;7.00;60.80
16116;DHT22;8162;47.104;15.432;2024-02-14T18:58:57;7.00;60.60
16116;DHT22;8162;47.104;15.432;2024-02-14T19:08:00;6.90;60.90
16116;DHT22;8162;47.104;15.432;2024-02-14T19:11:01;6.70;61.40
16116;DHT22;8162;47.104;15.432;2024-02-14T19:14:04;6.70;61.70
16116;DHT22;8162;47.104;15.432;2024-02-14T19:17:05;6.60;61.70
16116;DHT22;8162;47.104;15.432;2024-02-14T19:20:06;6.60;61.50
16116;DHT22;8162;47.104;15.432;2024-02-14T19:23:08;6.50;61.60
16116;DHT22;8162;47.104;15.432;2024-02-14T19:26:09;6.50;62.10
